createdAt,value
2018-04-16T00:01:31.982Z,25.90
2018-04-16T00:04:00.127Z,26.53
2018-04-16T00:06:28.237Z,25.93
2018-04-16T00:08:57.138Z,25.50
2018-04-16T00:11:26.023Z,26.13
2018-04-16T00:13:54.152Z,25.87
2018-04-16T00:16:22.295Z,29.93
2018-04-16T00:18:50.435Z,32.00
2018-04-16T00:21:18.541Z,32.70
2018-04-16T00:23:46.685Z,30.87
2018-04-16T00:26:15.558Z,31.20
2018-04-16T00:28:43.695Z,32.40
2018-04-16T00:31:11.808Z,31.47
2018-04-16T00:33:56.764Z,29.33
2018-04-16T00:36:30.554Z,29.53
2018-04-16T00:39:16.420Z,30.07
2018-04-16T00:41:50.144Z,31.53
2018-04-16T00:44:37.034Z,31.43
2018-04-16T00:47:10.761Z,31.70
2018-04-16T00:49:44.465Z,32.07
2018-04-16T00:52:18.171Z,30.27
2018-04-16T00:54:52.079Z,31.37
2018-04-16T00:57:25.847Z,30.80
2018-04-16T00:59:59.606Z,32.30
2018-04-16T01:02:33.324Z,31.43
2018-04-16T01:05:07.251Z,32.90
2018-04-16T01:07:41.742Z,30.90
2018-04-16T01:10:15.633Z,32.40
2018-04-16T01:12:49.578Z,32.47
2018-04-16T01:15:23.360Z,32.20
2018-04-16T01:17:57.156Z,32.17
2018-04-16T01:20:31.046Z,30.10
2018-04-16T01:23:04.823Z,32.47
2018-04-16T01:25:40.017Z,30.77
2018-04-16T01:28:13.781Z,33.07
2018-04-16T01:30:47.619Z,33.07
2018-04-16T01:33:22.257Z,30.37
2018-04-16T01:35:55.954Z,29.90
2018-04-16T01:38:29.908Z,31.10
2018-04-16T01:41:04.450Z,30.70
2018-04-16T01:43:38.214Z,31.27
2018-04-16T01:46:11.973Z,32.90
2018-04-16T01:48:45.953Z,30.30
2018-04-16T01:51:20.595Z,33.07
2018-04-16T01:53:54.312Z,32.50
2018-04-16T01:56:28.200Z,32.37
2018-04-16T01:59:02.970Z,30.93
2018-04-16T02:01:36.754Z,29.70
2018-04-16T02:04:10.551Z,28.10
2018-04-16T02:06:44.441Z,28.30
2018-04-16T02:09:19.130Z,29.20
2018-04-16T02:11:52.917Z,28.60
2018-04-16T02:14:26.782Z,29.80
2018-04-16T02:17:01.424Z,27.63
2018-04-16T02:19:35.164Z,29.90
2018-04-16T02:22:08.965Z,28.93
2018-04-16T02:24:57.977Z,29.90
2018-04-16T02:27:32.461Z,30.63
2018-04-16T02:30:07.040Z,26.13
2018-04-16T02:32:41.046Z,25.50
2018-04-16T02:35:15.770Z,24.90
2018-04-16T02:37:50.256Z,27.30
2018-04-16T02:40:24.087Z,28.50
2018-04-16T02:42:58.732Z,28.80
2018-04-16T02:45:32.646Z,27.00
2018-04-16T02:48:06.373Z,29.20
2018-04-16T02:50:40.064Z,29.97
2018-04-16T02:53:13.913Z,31.30
2018-04-16T02:55:47.697Z,31.40
2018-04-16T02:58:21.394Z,32.30
2018-04-16T03:00:55.270Z,30.50
2018-04-16T03:03:29.884Z,31.57
2018-04-16T03:06:04.516Z,31.53
2018-04-16T03:08:38.993Z,29.50
2018-04-16T03:11:12.999Z,28.80
2018-04-16T03:13:46.834Z,29.40
2018-04-16T03:16:20.693Z,28.40
2018-04-16T03:18:54.574Z,28.77
2018-04-16T03:21:29.102Z,29.67
2018-04-16T03:24:03.803Z,52.10
2018-04-16T03:26:37.650Z,60.07
2018-04-16T03:29:11.343Z,49.83
2018-04-16T03:31:45.851Z,49.67
2018-04-16T03:34:20.338Z,46.10
2018-04-16T03:36:54.273Z,41.63
2018-04-16T03:39:28.005Z,40.40
2018-04-16T03:42:01.918Z,37.87
2018-04-16T03:44:35.662Z,34.67
2018-04-16T03:47:20.109Z,47.35
2018-04-16T03:49:53.799Z,56.30
2018-04-16T03:52:27.546Z,50.50
2018-04-16T03:54:57.097Z,46.83
2018-04-16T03:57:25.226Z,49.30
2018-04-16T03:59:53.341Z,51.00
2018-04-16T04:02:21.489Z,43.77
2018-04-16T04:04:50.511Z,48.60
2018-04-16T04:07:18.652Z,43.20
2018-04-16T04:09:46.762Z,42.10
2018-04-16T04:12:14.902Z,42.70
2018-04-16T04:14:43.823Z,47.43
2018-04-16T04:17:11.964Z,41.27
2018-04-16T04:19:40.845Z,45.80
2018-04-16T04:22:08.984Z,49.70
2018-04-16T04:24:48.910Z,50.27
2018-04-16T04:27:28.894Z,50.97
2018-04-16T04:30:08.829Z,50.70
2018-04-16T04:32:37.204Z,45.67
2018-04-16T04:35:06.968Z,43.87
2018-04-16T04:37:35.114Z,42.23
2018-04-16T04:40:03.229Z,40.63
2018-04-16T04:42:32.129Z,43.43
2018-04-16T04:45:01.010Z,43.43
2018-04-16T04:47:29.918Z,41.50
2018-04-16T04:49:58.029Z,39.43
2018-04-16T04:52:26.169Z,39.90
2018-04-16T04:54:54.283Z,39.30
2018-04-16T04:57:22.419Z,40.40
2018-04-16T04:59:50.537Z,39.87
2018-04-16T05:02:18.688Z,39.00
2018-04-16T05:04:46.798Z,39.20
2018-04-16T05:07:15.297Z,38.63
2018-04-16T05:09:44.181Z,38.80
2018-04-16T05:12:12.318Z,39.03
2018-04-16T05:14:40.471Z,36.30
2018-04-16T05:17:08.625Z,36.43
2018-04-16T05:19:37.515Z,35.80
2018-04-16T05:22:05.637Z,36.20
2018-04-16T05:24:33.779Z,36.70
2018-04-16T05:27:01.907Z,39.40
2018-04-16T05:29:30.840Z,40.97
2018-04-16T05:31:58.952Z,45.00
2018-04-16T05:34:27.098Z,36.23
2018-04-16T05:36:55.222Z,38.87
2018-04-16T05:39:23.353Z,38.30
2018-04-16T05:41:51.470Z,36.80
2018-04-16T05:44:20.399Z,37.50
2018-04-16T05:46:48.519Z,36.70
2018-04-16T05:49:16.666Z,36.70
2018-04-16T05:51:44.785Z,36.90
2018-04-16T05:54:12.983Z,39.50
2018-04-16T05:56:41.097Z,37.17
2018-04-16T05:59:09.241Z,37.40
2018-04-16T06:01:37.352Z,35.50
2018-04-16T06:04:05.494Z,36.40
2018-04-16T06:06:33.653Z,36.63
2018-04-16T06:09:02.590Z,36.97
2018-04-16T06:11:30.709Z,35.13
2018-04-16T06:13:59.601Z,38.90
2018-04-16T06:16:28.491Z,37.73
2018-04-16T06:18:57.388Z,37.07
2018-04-16T06:21:25.500Z,38.20
2018-04-16T06:23:53.639Z,38.40
2018-04-16T06:26:21.767Z,37.83
2018-04-16T06:28:49.916Z,37.73
2018-04-16T06:31:18.044Z,39.60
2018-04-16T06:33:46.950Z,38.77
2018-04-16T06:36:15.065Z,36.90
2018-04-16T06:38:43.200Z,38.87
2018-04-16T06:41:11.314Z,38.50
2018-04-16T06:43:39.444Z,37.43
2018-04-16T06:46:07.568Z,36.17
2018-04-16T06:48:35.720Z,37.83
2018-04-16T06:51:03.832Z,38.00
2018-04-16T06:53:31.969Z,37.17
2018-04-16T06:56:00.088Z,37.83
2018-04-16T06:58:28.995Z,36.03
2018-04-16T07:00:57.904Z,36.10
2018-04-16T07:03:26.071Z,33.40
2018-04-16T07:05:54.191Z,35.00
2018-04-16T07:08:22.340Z,35.93
2018-04-16T07:10:50.459Z,34.17
2018-04-16T07:13:19.400Z,32.43
2018-04-16T07:15:47.536Z,34.10
2018-04-16T07:18:15.711Z,33.20
2018-04-16T07:20:44.594Z,33.77
2018-04-16T07:23:13.499Z,31.43
2018-04-16T07:25:41.661Z,31.63
2018-04-16T07:28:11.281Z,28.93
2018-04-16T07:30:40.179Z,30.40
2018-04-16T07:33:08.325Z,28.40
2018-04-16T07:35:36.461Z,27.63
2018-04-16T07:38:04.626Z,27.67
2018-04-16T07:40:32.784Z,29.47
2018-04-16T07:43:00.894Z,27.90
2018-04-16T07:45:29.051Z,26.60
2018-04-16T07:47:58.161Z,28.00
2018-04-16T07:50:26.298Z,27.53
2018-04-16T07:52:54.427Z,27.00
2018-04-16T07:55:22.602Z,29.13
2018-04-16T07:57:50.763Z,27.07
2018-04-16T08:00:20.728Z,26.30
2018-04-16T08:02:50.428Z,28.13
2018-04-16T08:05:18.496Z,25.93
2018-04-16T08:07:47.430Z,27.77
2018-04-16T08:10:15.578Z,27.83
2018-04-16T08:12:43.693Z,28.93
2018-04-16T08:15:11.835Z,26.90
2018-04-16T08:17:41.434Z,26.37
2018-04-16T08:20:11.086Z,25.40
2018-04-16T08:22:39.104Z,25.10
2018-04-16T08:25:08.120Z,24.80
2018-04-16T08:27:36.242Z,24.80
2018-04-16T08:30:05.733Z,23.97
2018-04-16T08:32:37.384Z,23.60
2018-04-16T08:35:07.603Z,21.90
2018-04-16T08:37:37.091Z,22.97
2018-04-16T08:40:06.688Z,21.43
2018-04-16T08:42:36.069Z,23.70
2018-04-16T08:45:04.186Z,24.37
2018-04-16T08:47:32.310Z,23.00
2018-04-16T08:50:01.422Z,23.73
2018-04-16T08:52:29.539Z,23.30
2018-04-16T08:54:57.687Z,23.60
2018-04-16T08:57:25.815Z,22.97
2018-04-16T08:59:55.285Z,23.47
2018-04-16T09:02:24.732Z,23.53
2018-04-16T09:04:54.122Z,22.47
2018-04-16T09:07:23.822Z,21.83
2018-04-16T09:09:53.600Z,22.83
2018-04-16T09:12:23.052Z,21.47
2018-04-16T09:14:52.786Z,21.50
2018-04-16T09:17:22.239Z,21.97
2018-04-16T09:19:51.662Z,21.70
2018-04-16T09:22:20.455Z,23.50
2018-04-16T09:24:48.951Z,22.90
2018-04-16T09:27:17.179Z,21.97
2018-04-16T09:29:45.315Z,23.27
2018-04-16T09:32:13.438Z,22.30
2018-04-16T09:34:41.590Z,21.00
2018-04-16T09:37:10.970Z,20.30
2018-04-16T09:39:39.116Z,21.10
2018-04-16T09:42:08.006Z,20.53
2018-04-16T09:44:36.924Z,20.20
2018-04-16T09:47:05.058Z,20.53
2018-04-16T09:49:33.186Z,19.03
2018-04-16T09:52:01.853Z,19.40
2018-04-16T09:54:29.991Z,18.17
2018-04-16T09:56:58.264Z,19.27
2018-04-16T09:59:26.372Z,18.00
2018-04-16T10:01:54.522Z,17.53
2018-04-16T10:04:22.628Z,17.27
2018-04-16T10:06:50.761Z,17.73
2018-04-16T10:09:21.801Z,12.47
2018-04-16T10:11:51.193Z,12.37
2018-04-16T10:14:20.565Z,11.97
2018-04-16T10:16:49.968Z,12.93
2018-04-16T10:19:19.354Z,13.13
2018-04-16T10:21:48.804Z,13.03
2018-04-16T10:24:18.232Z,11.57
2018-04-16T10:26:47.658Z,13.13
2018-04-16T10:29:17.034Z,14.10
2018-04-16T10:31:46.441Z,12.50
2018-04-16T10:34:15.820Z,13.60
2018-04-16T10:36:45.227Z,14.20
2018-04-16T10:39:14.595Z,14.10
2018-04-16T10:41:43.992Z,11.33
2018-04-16T10:44:13.349Z,13.60
2018-04-16T10:46:42.749Z,13.87
2018-04-16T10:49:12.127Z,11.50
2018-04-16T10:51:41.697Z,11.67
2018-04-16T10:54:11.089Z,13.37
2018-04-16T10:56:40.516Z,13.53
2018-04-16T10:59:09.884Z,13.23
2018-04-16T11:01:39.287Z,10.53
2018-04-16T11:04:08.666Z,11.90
2018-04-16T11:06:38.057Z,10.93
2018-04-16T11:09:07.437Z,10.80
2018-04-16T11:11:36.842Z,10.47
2018-04-16T11:14:06.208Z,9.70
2018-04-16T11:16:35.607Z,11.90
2018-04-16T11:19:04.987Z,12.57
2018-04-16T11:21:34.382Z,12.80
2018-04-16T11:24:03.882Z,12.83
2018-04-16T11:26:33.337Z,13.90
2018-04-16T11:29:02.690Z,14.93
2018-04-16T11:31:32.088Z,15.23
2018-04-16T11:34:01.803Z,14.97
2018-04-16T11:36:31.197Z,13.80
2018-04-16T11:39:01.118Z,13.40
2018-04-16T11:41:30.513Z,13.53
2018-04-16T11:43:59.886Z,11.00
2018-04-16T11:46:29.280Z,11.50
2018-04-16T11:48:58.650Z,10.90
2018-04-16T11:51:28.049Z,10.33
2018-04-16T11:53:57.425Z,10.43
2018-04-16T11:56:26.827Z,13.40
2018-04-16T11:58:56.191Z,13.83
2018-04-16T12:01:25.586Z,12.40
2018-04-16T12:03:54.957Z,13.63
2018-04-16T12:06:24.344Z,12.47
2018-04-16T12:08:53.715Z,11.80
2018-04-16T12:11:23.105Z,10.93
2018-04-16T12:13:52.468Z,9.93
2018-04-16T12:16:21.860Z,11.40
2018-04-16T12:18:51.263Z,10.87
2018-04-16T12:21:20.649Z,9.73
2018-04-16T12:23:50.008Z,11.10
2018-04-16T12:26:19.406Z,10.60
2018-04-16T12:28:48.773Z,10.30
2018-04-16T12:31:18.170Z,10.10
2018-04-16T12:33:47.533Z,8.27
2018-04-16T12:36:16.933Z,8.20
2018-04-16T12:38:46.354Z,8.00
2018-04-16T12:41:15.748Z,8.77
2018-04-16T12:43:45.113Z,9.30
2018-04-16T12:46:15.221Z,8.53
2018-04-16T12:48:44.961Z,7.23
2018-04-16T12:51:14.537Z,8.03
2018-04-16T12:53:43.948Z,11.07
2018-04-16T12:56:13.339Z,9.80
2018-04-16T12:58:42.717Z,10.33
2018-04-16T13:01:12.114Z,11.40
2018-04-16T13:03:41.490Z,10.63
2018-04-16T13:06:10.886Z,12.70
2018-04-16T13:08:40.264Z,12.47
2018-04-16T13:11:09.665Z,13.20
2018-04-16T13:13:39.062Z,12.63
2018-04-16T13:16:08.459Z,12.53
2018-04-16T13:18:37.840Z,12.50
2018-04-16T13:21:07.225Z,12.50
2018-04-16T13:23:36.595Z,13.57
2018-04-16T13:26:06.381Z,15.00
2018-04-16T13:28:35.786Z,15.77
2018-04-16T13:31:05.230Z,17.50
2018-04-16T13:33:34.608Z,17.50
2018-04-16T13:36:04.001Z,16.03
2018-04-16T13:38:33.384Z,17.80
2018-04-16T13:41:02.781Z,16.03
2018-04-16T13:43:32.152Z,17.10
2018-04-16T13:46:01.549Z,17.60
2018-04-16T13:48:31.065Z,14.63
2018-04-16T13:51:00.433Z,13.57
2018-04-16T13:53:29.835Z,13.70
2018-04-16T13:55:59.235Z,13.70
2018-04-16T13:58:28.641Z,13.00
2018-04-16T14:00:58.009Z,11.50
2018-04-16T14:03:27.413Z,11.40
2018-04-16T14:05:56.776Z,12.17
2018-04-16T14:08:26.185Z,12.00
2018-04-16T14:10:55.566Z,11.90
2018-04-16T14:13:24.974Z,12.50
2018-04-16T14:15:54.340Z,11.87
2018-04-16T14:18:23.727Z,13.37
2018-04-16T14:20:53.107Z,13.50
2018-04-16T14:23:22.504Z,13.40
2018-04-16T14:25:51.901Z,14.00
2018-04-16T14:28:21.329Z,12.23
2018-04-16T14:30:50.710Z,12.30
2018-04-16T14:33:20.101Z,11.53
2018-04-16T14:35:49.482Z,10.70
2018-04-16T14:38:18.893Z,10.60
2018-04-16T14:40:48.286Z,12.10
2018-04-16T14:43:17.683Z,12.30
2018-04-16T14:45:47.083Z,11.37
2018-04-16T14:48:15.130Z,11.60
2018-04-16T14:50:44.005Z,11.53
2018-04-16T14:53:12.147Z,11.50
2018-04-16T14:55:41.027Z,12.07
2018-04-16T14:58:09.934Z,12.83
2018-04-16T15:00:38.056Z,12.37
2018-04-16T15:03:06.184Z,12.00
2018-04-16T15:05:35.608Z,12.87
2018-04-16T15:08:06.585Z,12.47
2018-04-16T15:10:34.701Z,12.90
2018-04-16T15:13:03.015Z,11.40
2018-04-16T15:15:31.150Z,11.60
2018-04-16T15:18:00.054Z,10.40
2018-04-16T15:20:28.163Z,10.97
2018-04-16T15:22:56.303Z,11.10
2018-04-16T15:25:24.427Z,11.10
2018-04-16T15:27:52.564Z,10.40
2018-04-16T15:30:20.674Z,10.10
2018-04-16T15:32:48.866Z,10.53
2018-04-16T15:35:16.939Z,10.33
2018-04-16T15:37:45.856Z,11.67
2018-04-16T15:40:13.994Z,11.90
2018-04-16T15:42:42.138Z,10.97
2018-04-16T15:45:10.256Z,12.20
2018-04-16T15:47:38.390Z,11.80
2018-04-16T15:50:06.493Z,11.83
2018-04-16T15:52:34.632Z,10.37
2018-04-16T15:55:02.803Z,9.20
2018-04-16T15:57:30.947Z,10.23
2018-04-16T15:59:59.057Z,9.73
2018-04-16T16:02:27.200Z,10.43
2018-04-16T16:04:55.301Z,11.37
2018-04-16T16:07:23.436Z,10.77
2018-04-16T16:09:51.776Z,9.80
2018-04-16T16:12:19.923Z,11.20
2018-04-16T16:14:48.033Z,12.03
2018-04-16T16:17:16.189Z,11.43
2018-04-16T16:19:44.306Z,13.10
2018-04-16T16:22:13.211Z,13.80
2018-04-16T16:24:41.318Z,12.20
2018-04-16T16:27:09.469Z,11.80
2018-04-16T16:29:37.572Z,11.17
2018-04-16T16:32:06.599Z,8.70
2018-04-16T16:34:35.504Z,10.20
2018-04-16T16:37:03.651Z,9.10
2018-04-16T16:39:31.757Z,8.53
2018-04-16T16:41:59.903Z,7.20
2018-04-16T16:44:28.013Z,7.90
2018-04-16T16:46:56.146Z,7.90
2018-04-16T16:49:24.261Z,7.30
2018-04-16T16:51:53.403Z,6.63
2018-04-16T16:54:21.541Z,6.23
2018-04-16T16:56:49.650Z,6.60
2018-04-16T16:59:17.788Z,6.13
2018-04-16T17:01:46.740Z,6.40
2018-04-16T17:04:14.953Z,6.43
2018-04-16T17:06:43.067Z,7.53
2018-04-16T17:09:11.198Z,7.50
2018-04-16T17:11:39.296Z,7.03
2018-04-16T17:14:07.439Z,7.60
2018-04-16T17:16:35.553Z,7.33
2018-04-16T17:19:03.737Z,7.93
2018-04-16T17:21:31.852Z,8.10
2018-04-16T17:23:59.994Z,8.20
2018-04-16T17:26:28.117Z,9.40
2018-04-16T17:28:56.329Z,8.47
2018-04-16T17:31:24.444Z,9.20
2018-04-16T17:33:52.587Z,8.90
2018-04-16T17:36:21.485Z,8.20
2018-04-16T17:38:49.698Z,7.77
2018-04-16T17:41:17.908Z,8.33
2018-04-16T17:43:46.138Z,7.50
2018-04-16T17:46:14.266Z,7.93
2018-04-16T17:48:42.390Z,8.13
2018-04-16T17:51:10.504Z,8.13
2018-04-16T17:53:39.714Z,9.13
2018-04-16T17:56:08.002Z,8.80
2018-04-16T17:58:36.142Z,10.17
2018-04-16T18:01:04.260Z,10.20
2018-04-16T18:03:32.404Z,9.77
2018-04-16T18:06:00.599Z,9.87
2018-04-16T18:08:28.727Z,8.77
2018-04-16T18:10:58.210Z,8.90
2018-04-16T18:13:28.863Z,8.30
2018-04-16T18:15:57.129Z,8.63
2018-04-16T18:18:25.427Z,9.00
2018-04-16T18:20:53.623Z,10.27
2018-04-16T18:23:21.747Z,9.53
2018-04-16T18:25:49.878Z,10.80
2018-04-16T18:28:18.040Z,10.60
2018-04-16T18:30:46.227Z,11.20
2018-04-16T18:33:14.378Z,11.83
2018-04-16T18:35:42.553Z,11.50
2018-04-16T18:38:11.066Z,11.67
2018-04-16T18:40:40.674Z,13.50
2018-04-16T18:43:08.821Z,12.87
2018-04-16T18:45:37.035Z,12.50
2018-04-16T18:48:06.055Z,13.40
2018-04-16T18:50:34.216Z,14.23
2018-04-16T18:53:03.173Z,14.17
2018-04-16T18:55:31.378Z,13.67
2018-04-16T18:58:00.269Z,14.40
2018-04-16T19:00:29.169Z,14.77
2018-04-16T19:02:57.349Z,14.83
2018-04-16T19:05:25.525Z,16.37
2018-04-16T19:07:53.857Z,16.20
2018-04-16T19:10:22.992Z,15.70
2018-04-16T19:12:51.239Z,15.40
2018-04-16T19:15:20.130Z,16.33
2018-04-16T19:17:53.889Z,14.90
2018-04-16T19:20:27.730Z,16.70
2018-04-16T19:22:55.995Z,15.07
2018-04-16T19:25:24.193Z,15.83
2018-04-16T19:27:58.939Z,15.20
2018-04-16T19:30:27.804Z,16.10
2018-04-16T19:33:01.766Z,15.80
2018-04-16T19:35:29.875Z,16.27
2018-04-16T19:37:58.005Z,16.30
2018-04-16T19:40:26.275Z,15.70
2018-04-16T19:42:55.241Z,15.60
2018-04-16T19:45:24.347Z,16.40
2018-04-16T19:47:52.529Z,14.90
2018-04-16T19:50:21.445Z,16.07
2018-04-16T19:52:49.605Z,13.87
2018-04-16T19:55:17.992Z,14.80
2018-04-16T19:57:51.767Z,14.90
2018-04-16T20:00:19.909Z,13.40
2018-04-16T20:02:53.707Z,14.63
2018-04-16T20:05:21.829Z,13.17
2018-04-16T20:07:50.711Z,14.40
2018-04-16T20:10:19.619Z,14.50
2018-04-16T20:12:48.502Z,14.40
2018-04-16T20:15:17.394Z,13.40
2018-04-16T20:17:46.269Z,13.90
2018-04-16T20:20:14.412Z,12.40
2018-04-16T20:22:42.531Z,12.93
2018-04-16T20:25:11.434Z,13.90
2018-04-16T20:27:39.554Z,12.97
2018-04-16T20:30:07.694Z,13.93
2018-04-16T20:32:35.810Z,12.93
2018-04-16T20:35:03.939Z,13.30
2018-04-16T20:37:32.069Z,13.73
2018-04-16T20:40:00.215Z,13.57
2018-04-16T20:42:28.614Z,13.70
2018-04-16T20:44:56.764Z,13.80
2018-04-16T20:47:24.875Z,12.97
2018-04-16T20:49:53.014Z,13.30
2018-04-16T20:52:21.113Z,13.03
2018-04-16T20:54:49.266Z,14.40
2018-04-16T20:57:17.386Z,13.57
2018-04-16T20:59:46.288Z,13.43
2018-04-16T21:02:14.397Z,13.70
2018-04-16T21:04:42.521Z,13.00
2018-04-16T21:07:11.408Z,13.50
2018-04-16T21:09:40.310Z,13.20
2018-04-16T21:12:08.440Z,13.40
2018-04-16T21:14:36.585Z,13.67
2018-04-16T21:17:04.700Z,13.47
2018-04-16T21:19:32.849Z,14.10
2018-04-16T21:22:00.967Z,12.67
2018-04-16T21:24:29.871Z,13.83
2018-04-16T21:26:57.994Z,13.53
2018-04-16T21:29:26.128Z,13.17
2018-04-16T21:31:54.239Z,14.20
2018-04-16T21:34:22.371Z,13.37
2018-04-16T21:36:50.472Z,15.03
2018-04-16T21:39:18.587Z,14.20
2018-04-16T21:41:47.484Z,14.63
2018-04-16T21:44:16.357Z,15.23
2018-04-16T21:46:44.499Z,16.10
2018-04-16T21:49:12.618Z,15.00
2018-04-16T21:51:41.519Z,15.40
2018-04-16T21:54:10.398Z,14.50
2018-04-16T21:56:39.316Z,15.30
2018-04-16T21:59:07.426Z,15.30
2018-04-16T22:01:35.555Z,14.50
2018-04-16T22:04:03.671Z,13.90
2018-04-16T22:06:31.816Z,14.33
2018-04-16T22:08:59.933Z,15.23
2018-04-16T22:11:28.072Z,13.87
2018-04-16T22:13:56.181Z,13.20
2018-04-16T22:16:24.323Z,14.30
2018-04-16T22:18:52.434Z,15.53
2018-04-16T22:21:20.569Z,15.83
2018-04-16T22:23:48.706Z,13.80
2018-04-16T22:26:17.609Z,14.43
2018-04-16T22:28:45.729Z,15.53
2018-04-16T22:31:13.878Z,16.17
2018-04-16T22:33:41.993Z,15.87
2018-04-16T22:36:10.143Z,16.13
2018-04-16T22:38:38.251Z,15.57
2018-04-16T22:41:06.396Z,15.57
2018-04-16T22:43:34.525Z,14.87
2018-04-16T22:46:02.675Z,14.17
2018-04-16T22:48:31.558Z,15.60
2018-04-16T22:50:59.690Z,15.83
2018-04-16T22:53:27.808Z,15.80
2018-04-16T22:55:56.706Z,16.53
2018-04-16T22:58:25.580Z,16.57
2018-04-16T23:00:53.713Z,15.80
2018-04-16T23:03:21.828Z,17.13
2018-04-16T23:05:49.979Z,15.10
2018-04-16T23:08:18.094Z,17.53
2018-04-16T23:10:46.998Z,16.73
2018-04-16T23:13:15.113Z,16.10
2018-04-16T23:15:43.246Z,17.13
2018-04-16T23:18:11.394Z,16.73
2018-04-16T23:20:40.305Z,17.00
2018-04-16T23:23:08.412Z,16.73
2018-04-16T23:25:37.318Z,17.77
2018-04-16T23:28:05.423Z,16.50
2018-04-16T23:30:34.322Z,18.00
2018-04-16T23:33:03.305Z,18.00
2018-04-16T23:35:31.474Z,18.10
2018-04-16T23:37:59.601Z,18.20
2018-04-16T23:40:27.739Z,18.40
2018-04-16T23:42:56.614Z,19.23
2018-04-16T23:45:25.520Z,17.90
2018-04-16T23:47:54.409Z,18.70
2018-04-16T23:50:23.306Z,16.30
2018-04-16T23:52:52.274Z,19.37
2018-04-16T23:55:20.412Z,17.83
2018-04-16T23:57:48.521Z,16.23
